createdAt,value
2022-11-17T00:01:27.289Z,0.60
2022-11-17T00:03:56.693Z,0.20
2022-11-17T00:06:25.224Z,0.65
2022-11-17T00:08:56.019Z,0.88
2022-11-17T00:11:24.355Z,0.45
2022-11-17T00:14:11.031Z,0.50
2022-11-17T00:16:39.147Z,0.60
2022-11-17T00:19:24.847Z,0.77
2022-11-17T00:21:53.702Z,0.40
2022-11-17T00:24:25.635Z,0.40
2022-11-17T00:27:02.573Z,0.55
2022-11-17T00:29:30.945Z,0.38
2022-11-17T00:32:17.373Z,0.50
2022-11-17T00:34:46.932Z,0.47
2022-11-17T00:37:16.956Z,0.50
2022-11-17T00:39:48.105Z,0.57
2022-11-17T00:42:16.854Z,0.60
2022-11-17T00:44:45.283Z,0.60
2022-11-17T00:47:13.396Z,1.00
2022-11-17T00:49:43.034Z,0.35
2022-11-17T00:52:11.755Z,0.35
2022-11-17T00:54:41.542Z,0.50
2022-11-17T00:57:11.818Z,0.47
2022-11-17T00:59:41.367Z,0.60
2022-11-17T01:02:09.562Z,0.50
2022-11-17T01:04:41.568Z,0.63
2022-11-17T01:07:09.890Z,0.65
2022-11-17T01:09:37.978Z,0.55
2022-11-17T01:12:06.570Z,0.40
2022-11-17T01:14:36.400Z,0.40
2022-11-17T01:17:04.466Z,0.38
2022-11-17T01:19:32.826Z,0.55
2022-11-17T01:22:01.124Z,0.60
2022-11-17T01:24:31.804Z,0.40
2022-11-17T01:27:02.578Z,0.47
2022-11-17T01:29:32.820Z,0.40
2022-11-17T01:32:05.184Z,0.50
2022-11-17T01:34:35.488Z,0.60
2022-11-17T01:37:24.607Z,0.40
2022-11-17T01:39:53.011Z,0.65
2022-11-17T01:42:23.175Z,0.30
2022-11-17T01:45:02.590Z,0.30
2022-11-17T01:47:38.520Z,0.50
2022-11-17T01:50:15.182Z,0.40
2022-11-17T01:52:44.770Z,0.40
2022-11-17T01:55:15.576Z,0.60
2022-11-17T01:57:50.552Z,0.70
2022-11-17T02:00:22.105Z,0.40
2022-11-17T02:02:57.025Z,0.55
2022-11-17T02:05:38.958Z,0.28
2022-11-17T02:08:08.536Z,0.45
2022-11-17T02:13:10.928Z,0.30
2022-11-17T02:15:39.667Z,0.30
2022-11-17T02:18:14.296Z,0.50
2022-11-17T02:20:55.545Z,0.30
2022-11-17T02:24:02.326Z,0.35
2022-11-17T02:27:15.497Z,0.50
2022-11-17T02:29:55.631Z,0.30
2022-11-17T02:32:31.218Z,0.25
2022-11-17T02:35:12.395Z,0.50
2022-11-17T02:37:54.358Z,0.50
2022-11-17T02:40:27.695Z,0.40
2022-11-17T02:43:17.621Z,0.30
2022-11-17T02:45:54.539Z,0.43
2022-11-17T02:48:28.185Z,0.20
2022-11-17T02:50:58.436Z,0.20
2022-11-17T02:53:30.461Z,0.70
2022-11-17T02:56:02.300Z,0.20
2022-11-17T02:58:32.215Z,0.20
2022-11-17T03:01:15.418Z,0.60
2022-11-17T03:04:02.508Z,0.30
2022-11-17T03:06:43.073Z,0.50
2022-11-17T03:09:20.177Z,0.30
2022-11-17T03:11:55.095Z,0.17
2022-11-17T03:14:31.348Z,0.20
2022-11-17T03:17:07.510Z,0.20
2022-11-17T03:19:42.543Z,0.20
2022-11-17T03:22:16.388Z,0.52
2022-11-17T03:24:49.440Z,0.30
2022-11-17T03:27:22.829Z,0.50
2022-11-17T03:29:55.913Z,0.52
2022-11-17T03:32:27.368Z,0.20
2022-11-17T03:34:59.628Z,0.60
2022-11-17T03:37:32.672Z,0.47
2022-11-17T03:40:05.820Z,0.20
2022-11-17T03:42:38.828Z,0.38
2022-11-17T03:45:12.803Z,0.32
2022-11-17T03:47:44.824Z,0.30
2022-11-17T03:50:18.424Z,0.25
2022-11-17T03:52:50.046Z,0.30
2022-11-17T03:55:20.541Z,0.30
2022-11-17T03:57:55.124Z,0.13
2022-11-17T04:00:26.167Z,0.22
2022-11-17T04:02:58.898Z,0.25
2022-11-17T04:05:28.100Z,0.10
2022-11-17T04:07:56.445Z,0.63
2022-11-17T04:10:26.681Z,0.20
2022-11-17T04:13:13.069Z,0.28
2022-11-17T04:15:58.809Z,0.25
2022-11-17T04:18:28.693Z,0.10
2022-11-17T04:20:58.232Z,0.40
2022-11-17T04:23:28.341Z,0.10
2022-11-17T04:26:18.986Z,0.85
2022-11-17T04:28:50.151Z,0.22
2022-11-17T04:31:22.598Z,0.28
2022-11-17T04:33:53.444Z,0.55
2022-11-17T04:36:23.566Z,0.10
2022-11-17T04:38:56.512Z,0.17
2022-11-17T04:41:44.039Z,0.32
2022-11-17T04:44:13.902Z,0.40
2022-11-17T04:46:44.488Z,0.20
2022-11-17T04:49:15.110Z,0.30
2022-11-17T04:51:43.901Z,0.30
2022-11-17T04:54:14.786Z,0.52
2022-11-17T04:56:45.143Z,0.28
2022-11-17T04:59:14.073Z,0.30
2022-11-17T05:01:42.798Z,0.50
2022-11-17T05:04:14.801Z,0.50
2022-11-17T05:06:45.745Z,0.20
2022-11-17T05:09:16.123Z,0.35
2022-11-17T05:12:02.753Z,0.35
2022-11-17T05:14:34.176Z,0.40
2022-11-17T05:17:11.286Z,0.25
2022-11-17T05:19:44.222Z,0.40
2022-11-17T05:22:34.980Z,0.43
2022-11-17T05:25:03.778Z,0.52
2022-11-17T05:27:33.876Z,0.57
2022-11-17T05:30:02.874Z,0.80
2022-11-17T05:32:31.515Z,0.50
2022-11-17T05:35:00.572Z,0.28
2022-11-17T05:37:30.185Z,0.32
2022-11-17T05:39:58.662Z,0.32
2022-11-17T05:42:27.241Z,0.28
2022-11-17T05:44:55.556Z,0.30
2022-11-17T05:47:23.914Z,0.30
2022-11-17T05:49:52.272Z,0.43
2022-11-17T05:52:21.386Z,0.30
2022-11-17T05:54:51.383Z,0.50
2022-11-17T05:57:30.205Z,0.30
2022-11-17T06:00:04.508Z,0.33
2022-11-17T06:02:45.190Z,0.40
2022-11-17T06:05:19.817Z,0.35
2022-11-17T06:07:48.704Z,0.40
2022-11-17T06:10:19.827Z,0.60
2022-11-17T06:12:49.237Z,0.32
2022-11-17T06:15:17.715Z,0.20
2022-11-17T06:17:52.985Z,0.10
2022-11-17T06:20:26.869Z,0.17
2022-11-17T06:22:56.994Z,0.40
2022-11-17T06:25:28.543Z,0.17
2022-11-17T06:28:03.174Z,0.20
2022-11-17T06:30:32.068Z,0.63
2022-11-17T06:33:01.036Z,0.30
2022-11-17T06:35:34.013Z,0.10
2022-11-17T06:38:02.586Z,0.30
2022-11-17T06:40:36.589Z,0.30
2022-11-17T06:43:08.365Z,0.30
2022-11-17T06:45:37.906Z,0.20
2022-11-17T06:48:09.438Z,0.30
2022-11-17T06:50:37.741Z,0.20
2022-11-17T06:53:08.422Z,0.17
2022-11-17T06:55:38.889Z,0.47
2022-11-17T06:58:08.844Z,1.45
2022-11-17T07:00:37.611Z,0.30
2022-11-17T07:03:09.139Z,0.40
2022-11-17T07:05:40.303Z,0.30
2022-11-17T07:08:10.789Z,0.45
2022-11-17T07:10:46.444Z,0.20
2022-11-17T07:13:17.656Z,0.60
2022-11-17T07:15:50.480Z,0.22
2022-11-17T07:18:19.592Z,0.43
2022-11-17T07:20:48.604Z,0.60
2022-11-17T07:23:18.062Z,0.27
2022-11-17T07:25:48.106Z,0.65
2022-11-17T07:28:16.334Z,0.20
2022-11-17T07:30:44.558Z,0.70
2022-11-17T07:33:14.437Z,0.20
2022-11-17T07:35:43.191Z,0.47
2022-11-17T07:38:11.409Z,0.68
2022-11-17T07:40:40.839Z,0.20
2022-11-17T07:43:11.117Z,0.85
2022-11-17T07:45:40.104Z,0.32
2022-11-17T07:48:11.234Z,0.38
2022-11-17T07:50:41.544Z,0.20
2022-11-17T07:53:10.631Z,0.30
2022-11-17T07:55:41.054Z,0.30
2022-11-17T07:58:10.955Z,0.35
2022-11-17T08:00:39.607Z,0.32
2022-11-17T08:03:07.903Z,0.20
2022-11-17T08:05:42.958Z,0.50
2022-11-17T08:08:18.147Z,0.50
2022-11-17T08:10:46.821Z,0.50
2022-11-17T08:13:16.545Z,0.60
2022-11-17T08:18:13.869Z,0.47
2022-11-17T08:20:42.431Z,0.38
2022-11-17T08:23:10.616Z,0.50
2022-11-17T08:25:39.979Z,0.60
2022-11-17T08:28:10.018Z,0.30
2022-11-17T08:30:41.227Z,0.95
2022-11-17T08:33:09.475Z,0.30
2022-11-17T08:35:38.002Z,0.28
2022-11-17T08:38:06.849Z,0.40
2022-11-17T08:40:35.418Z,0.25
2022-11-17T08:43:06.422Z,0.50
2022-11-17T08:45:38.559Z,0.40
2022-11-17T08:48:13.804Z,0.30
2022-11-17T08:50:42.747Z,0.55
2022-11-17T08:53:15.668Z,0.77
2022-11-17T08:55:46.714Z,0.60
2022-11-17T08:58:15.329Z,0.95
2022-11-17T09:00:45.524Z,0.57
2022-11-17T09:03:15.995Z,0.43
2022-11-17T09:05:50.891Z,0.60
2022-11-17T09:11:07.918Z,0.60
2022-11-17T09:13:37.161Z,0.73
2022-11-17T09:16:09.153Z,0.63
2022-11-17T09:18:41.389Z,0.68
2022-11-17T09:21:11.435Z,0.40
2022-11-17T09:23:41.591Z,0.20
2022-11-17T09:26:12.546Z,0.45
2022-11-17T09:28:41.321Z,1.00
2022-11-17T09:31:12.681Z,0.55
2022-11-17T09:33:43.834Z,0.68
2022-11-17T09:36:15.102Z,0.40
2022-11-17T09:38:44.143Z,1.20
2022-11-17T09:41:22.767Z,0.73
2022-11-17T09:43:59.635Z,0.47
2022-11-17T09:46:38.755Z,0.40
2022-11-17T09:49:15.811Z,0.50
2022-11-17T09:51:49.289Z,0.75
2022-11-17T09:54:24.363Z,0.60
2022-11-17T09:56:54.729Z,0.90
2022-11-17T09:59:28.592Z,1.00
2022-11-17T10:01:57.188Z,0.43
2022-11-17T10:04:34.673Z,1.05
2022-11-17T10:07:04.394Z,0.40
2022-11-17T10:09:39.987Z,0.60
2022-11-17T10:12:17.510Z,0.80
2022-11-17T10:14:47.807Z,0.70
2022-11-17T10:17:18.621Z,0.40
2022-11-17T10:19:48.325Z,0.68
2022-11-17T10:22:33.289Z,0.77
2022-11-17T10:25:02.493Z,0.45
2022-11-17T10:27:32.684Z,0.93
2022-11-17T10:30:03.264Z,0.30
2022-11-17T10:32:36.010Z,0.85
2022-11-17T10:35:20.231Z,0.43
2022-11-17T10:38:03.321Z,0.73
2022-11-17T10:40:33.169Z,0.35
2022-11-17T10:43:07.792Z,0.30
2022-11-17T10:45:44.942Z,0.60
2022-11-17T10:48:25.645Z,0.22
2022-11-17T10:50:59.152Z,0.40
2022-11-17T10:53:46.753Z,0.32
2022-11-17T10:56:19.324Z,0.95
2022-11-17T10:59:05.098Z,0.47
2022-11-17T11:01:37.176Z,1.15
2022-11-17T11:04:08.227Z,0.98
2022-11-17T11:06:38.584Z,0.55
2022-11-17T11:09:16.168Z,0.77
2022-11-17T11:11:50.766Z,0.60
2022-11-17T11:14:25.714Z,0.82
2022-11-17T11:16:56.165Z,2.03
2022-11-17T11:19:27.949Z,1.77
2022-11-17T11:22:28.135Z,2.40
2022-11-17T11:25:05.876Z,1.88
2022-11-17T11:27:55.250Z,1.02
2022-11-17T11:30:23.859Z,0.73
2022-11-17T11:33:21.548Z,0.90
2022-11-17T11:36:01.344Z,1.48
2022-11-17T11:38:51.998Z,1.00
2022-11-17T11:41:37.595Z,3.33
2022-11-17T11:44:28.486Z,0.38
2022-11-17T11:47:07.829Z,1.10
2022-11-17T11:49:41.468Z,0.60
2022-11-17T11:52:17.420Z,0.30
2022-11-17T11:54:54.766Z,0.95
2022-11-17T11:57:28.090Z,0.57
2022-11-17T12:00:04.692Z,0.35
2022-11-17T12:02:46.847Z,0.85
2022-11-17T12:05:26.091Z,0.77
2022-11-17T12:08:10.774Z,0.30
2022-11-17T12:10:52.089Z,0.32
2022-11-17T12:13:24.693Z,0.20
2022-11-17T12:15:56.392Z,0.40
2022-11-17T12:18:34.149Z,0.38
2022-11-17T12:21:05.285Z,0.90
2022-11-17T12:23:41.326Z,0.90
2022-11-17T12:26:22.119Z,1.92
2022-11-17T12:28:51.804Z,3.63
2022-11-17T12:31:45.315Z,2.70
2022-11-17T12:34:23.863Z,1.80
2022-11-17T12:37:19.816Z,2.67
2022-11-17T12:40:05.077Z,0.60
2022-11-17T12:42:36.603Z,0.73
2022-11-17T12:45:12.522Z,1.30
2022-11-17T12:47:44.380Z,1.00
2022-11-17T12:50:45.439Z,0.50
2022-11-17T12:53:35.882Z,0.60
2022-11-17T12:56:22.247Z,0.57
2022-11-17T12:59:05.488Z,0.40
2022-11-17T13:01:45.491Z,0.30
2022-11-17T13:04:18.204Z,0.70
2022-11-17T13:07:00.882Z,0.55
2022-11-17T13:09:31.372Z,0.10
2022-11-17T13:12:01.257Z,0.50
2022-11-17T13:14:34.558Z,1.08
2022-11-17T13:17:03.282Z,0.88
2022-11-17T13:19:35.496Z,0.50
2022-11-17T13:22:06.681Z,0.60
2022-11-17T13:24:37.035Z,0.73
2022-11-17T13:27:08.401Z,0.50
2022-11-17T13:29:38.923Z,1.02
2022-11-17T13:32:18.511Z,0.50
2022-11-17T13:34:54.020Z,0.43
2022-11-17T13:37:24.540Z,0.20
2022-11-17T13:40:04.789Z,0.77
2022-11-17T13:42:34.580Z,0.45
2022-11-17T13:45:06.558Z,0.32
2022-11-17T13:47:46.451Z,0.75
2022-11-17T13:50:39.876Z,0.60
2022-11-17T13:53:24.401Z,0.95
2022-11-17T13:55:55.042Z,0.82
2022-11-17T13:58:42.546Z,0.57
2022-11-17T14:01:14.383Z,0.50
2022-11-17T14:03:44.801Z,0.65
2022-11-17T14:06:15.752Z,0.75
2022-11-17T14:09:02.326Z,0.70
2022-11-17T14:11:30.936Z,0.70
2022-11-17T14:14:01.432Z,0.52
2022-11-17T14:16:38.712Z,0.35
2022-11-17T14:19:26.330Z,1.10
2022-11-17T14:22:05.264Z,0.90
2022-11-17T14:24:39.675Z,1.10
2022-11-17T14:27:14.776Z,1.00
2022-11-17T14:29:43.627Z,1.00
2022-11-17T14:32:13.672Z,0.47
2022-11-17T14:34:41.909Z,0.30
2022-11-17T14:37:11.660Z,0.57
2022-11-17T14:39:45.019Z,0.90
2022-11-17T14:42:15.600Z,0.80
2022-11-17T14:44:44.797Z,0.38
2022-11-17T14:47:15.416Z,0.80
2022-11-17T14:49:43.691Z,0.22
2022-11-17T14:52:13.624Z,0.30
2022-11-17T14:54:45.141Z,0.52
2022-11-17T14:57:13.493Z,0.30
2022-11-17T14:59:44.751Z,0.43
2022-11-17T15:02:15.406Z,0.10
2022-11-17T15:04:50.492Z,0.20
2022-11-17T15:07:21.036Z,0.68
2022-11-17T15:09:49.635Z,0.30
2022-11-17T15:12:18.302Z,0.32
2022-11-17T15:14:48.558Z,0.75
2022-11-17T15:17:19.271Z,0.57
2022-11-17T15:19:47.875Z,0.93
2022-11-17T15:22:17.505Z,0.73
2022-11-17T15:24:47.776Z,0.10
2022-11-17T15:27:16.608Z,0.88
2022-11-17T15:30:44.455Z,0.90
2022-11-17T15:33:14.296Z,0.20
2022-11-17T15:35:43.494Z,0.52
2022-11-17T15:38:14.192Z,0.30
2022-11-17T15:40:45.522Z,0.32
2022-11-17T15:43:14.205Z,0.73
2022-11-17T15:45:43.155Z,0.30
2022-11-17T15:48:16.103Z,0.45
2022-11-17T15:50:48.375Z,0.95
2022-11-17T15:53:18.538Z,0.60
2022-11-17T15:55:48.953Z,0.63
2022-11-17T15:58:17.912Z,2.08
2022-11-17T16:00:52.223Z,1.43
2022-11-17T16:03:22.488Z,1.55
2022-11-17T16:05:52.571Z,0.57
2022-11-17T16:10:50.332Z,0.98
2022-11-17T16:13:19.697Z,0.65
2022-11-17T16:15:49.482Z,0.85
2022-11-17T16:18:19.434Z,0.80
2022-11-17T16:20:48.266Z,0.93
2022-11-17T16:23:18.310Z,0.60
2022-11-17T16:25:48.439Z,0.55
2022-11-17T16:28:18.016Z,0.47
2022-11-17T16:33:17.568Z,0.75
2022-11-17T16:35:46.667Z,0.52
2022-11-17T16:38:17.742Z,0.63
2022-11-17T16:40:46.113Z,0.43
2022-11-17T16:43:15.302Z,0.50
2022-11-17T16:45:46.780Z,0.73
2022-11-17T16:48:15.164Z,0.50
2022-11-17T16:50:45.890Z,0.63
2022-11-17T16:53:15.250Z,0.77
2022-11-17T16:55:44.883Z,1.08
2022-11-17T16:58:13.398Z,1.00
2022-11-17T17:00:44.241Z,1.42
2022-11-17T17:03:12.416Z,1.52
2022-11-17T17:05:41.130Z,1.40
2022-11-17T17:08:09.256Z,1.05
2022-11-17T17:10:37.410Z,1.70
2022-11-17T17:13:07.205Z,1.45
2022-11-17T17:15:36.527Z,1.08
2022-11-17T17:18:06.165Z,1.85
2022-11-17T17:23:03.296Z,1.42
2022-11-17T17:25:31.684Z,1.35
2022-11-17T17:28:00.410Z,1.33
2022-11-17T17:30:31.665Z,1.73
2022-11-17T17:33:04.463Z,2.00
2022-11-17T17:35:34.605Z,1.75
2022-11-17T17:38:03.116Z,1.33
2022-11-17T17:40:31.355Z,1.40
2022-11-17T17:43:00.645Z,1.58
2022-11-17T17:45:30.476Z,1.15
2022-11-17T17:47:58.848Z,2.45
2022-11-17T17:50:27.393Z,1.70
2022-11-17T17:52:58.161Z,2.17
2022-11-17T17:55:27.985Z,1.98
2022-11-17T17:57:57.419Z,1.50
2022-11-17T18:00:25.975Z,1.80
2022-11-17T18:02:57.809Z,1.55
2022-11-17T18:07:56.245Z,1.40
2022-11-17T18:10:24.635Z,1.40
2022-11-17T18:12:52.987Z,1.13
2022-11-17T18:15:22.494Z,1.00
2022-11-17T18:17:52.279Z,1.38
2022-11-17T18:20:21.830Z,0.88
2022-11-17T18:22:53.222Z,0.98
2022-11-17T18:25:22.382Z,1.10
2022-11-17T18:27:52.345Z,0.77
2022-11-17T18:30:20.855Z,1.05
2022-11-17T18:32:50.657Z,1.00
2022-11-17T18:35:22.187Z,0.90
2022-11-17T18:37:51.491Z,1.15
2022-11-17T18:40:20.134Z,1.08
2022-11-17T18:42:48.347Z,0.50
2022-11-17T18:45:18.225Z,0.80
2022-11-17T18:47:46.500Z,0.82
2022-11-17T18:50:16.922Z,1.00
2022-11-17T18:52:49.259Z,0.73
2022-11-17T18:55:17.635Z,1.10
2022-11-17T18:57:48.486Z,0.90
2022-11-17T19:00:18.421Z,0.90
2022-11-17T19:05:16.807Z,0.70
2022-11-17T19:07:56.253Z,1.58
2022-11-17T19:10:25.790Z,1.45
2022-11-17T19:12:54.495Z,2.45
2022-11-17T19:15:24.414Z,1.73
2022-11-17T19:17:53.898Z,1.90
2022-11-17T19:20:22.007Z,1.80
2022-11-17T19:22:55.153Z,2.28
2022-11-17T19:25:38.667Z,3.33
2022-11-17T19:28:09.582Z,3.00
2022-11-17T19:30:38.604Z,5.82
2022-11-17T19:33:07.786Z,3.28
2022-11-17T19:35:44.040Z,4.00
2022-11-17T19:38:13.095Z,3.28
2022-11-17T19:40:45.091Z,3.25
2022-11-17T19:43:17.986Z,1.38
2022-11-17T19:45:47.004Z,1.85
2022-11-17T19:48:15.427Z,1.07
2022-11-17T19:50:44.282Z,1.63
2022-11-17T19:55:43.404Z,1.75
2022-11-17T19:58:14.437Z,1.70
2022-11-17T20:00:43.360Z,1.55
2022-11-17T20:03:14.002Z,1.35
2022-11-17T20:05:42.306Z,1.40
2022-11-17T20:08:11.671Z,0.95
2022-11-17T20:10:42.135Z,0.85
2022-11-17T20:13:12.205Z,1.40
2022-11-17T20:15:40.466Z,1.02
2022-11-17T20:18:10.846Z,1.13
2022-11-17T20:20:42.336Z,0.95
2022-11-17T20:23:11.742Z,0.73
2022-11-17T20:25:40.694Z,1.40
2022-11-17T20:28:14.248Z,1.20
2022-11-17T20:30:43.043Z,1.17
2022-11-17T20:33:11.755Z,1.00
2022-11-17T20:35:40.535Z,1.07
2022-11-17T20:38:13.010Z,0.90
2022-11-17T20:40:44.230Z,1.05
2022-11-17T20:43:14.644Z,0.95
2022-11-17T20:45:43.099Z,0.90
2022-11-17T20:48:11.411Z,1.00
2022-11-17T20:50:42.394Z,0.90
2022-11-17T20:53:13.301Z,0.90
2022-11-17T20:55:45.539Z,0.95
2022-11-17T20:58:15.107Z,0.80
2022-11-17T21:00:44.108Z,1.20
2022-11-17T21:03:12.337Z,1.20
2022-11-17T21:05:41.545Z,1.10
2022-11-17T21:08:11.033Z,0.80
2022-11-17T21:10:40.233Z,1.08
2022-11-17T21:13:12.283Z,1.08
2022-11-17T21:15:46.908Z,1.02
2022-11-17T21:18:25.293Z,1.08
2022-11-17T21:20:57.423Z,1.73
2022-11-17T21:23:27.482Z,0.90
2022-11-17T21:25:56.332Z,1.20
2022-11-17T21:28:25.302Z,1.10
2022-11-17T21:30:55.127Z,1.05
2022-11-17T21:33:25.881Z,1.20
2022-11-17T21:35:54.110Z,1.00
2022-11-17T21:38:22.530Z,0.50
2022-11-17T21:40:53.427Z,0.32
2022-11-17T21:48:21.351Z,0.70
2022-11-17T21:50:49.642Z,0.90
2022-11-17T21:53:18.490Z,0.88
2022-11-17T21:55:46.711Z,0.70
2022-11-17T21:58:17.008Z,0.40
2022-11-17T22:00:47.391Z,0.50
2022-11-17T22:03:16.651Z,0.60
2022-11-17T22:05:47.660Z,0.50
2022-11-17T22:08:16.452Z,0.70
2022-11-17T22:10:47.521Z,0.90
2022-11-17T22:13:17.070Z,0.70
2022-11-17T22:15:49.575Z,1.30
2022-11-17T22:18:18.261Z,1.00
2022-11-17T22:20:52.811Z,1.13
2022-11-17T22:23:24.449Z,0.73
2022-11-17T22:25:57.114Z,1.00
2022-11-17T22:28:28.299Z,1.15
2022-11-17T22:30:57.493Z,1.00
2022-11-17T22:33:28.776Z,0.90
2022-11-17T22:36:04.250Z,1.25
2022-11-17T22:38:32.674Z,1.60
2022-11-17T22:41:02.052Z,2.90
2022-11-17T22:43:31.182Z,1.83
2022-11-17T22:46:05.067Z,1.67
2022-11-17T22:48:33.937Z,2.38
2022-11-17T22:51:09.085Z,1.25
2022-11-17T22:53:37.430Z,1.50
2022-11-17T22:56:08.659Z,1.10
2022-11-17T22:58:36.837Z,1.50
2022-11-17T23:01:06.353Z,1.30
2022-11-17T23:03:35.049Z,1.35
2022-11-17T23:06:03.907Z,1.43
2022-11-17T23:08:34.501Z,0.88
2022-11-17T23:11:34.826Z,1.27
2022-11-17T23:13:52.666Z,1.35
2022-11-17T23:16:24.995Z,1.57
2022-11-17T23:18:55.017Z,1.10
2022-11-17T23:21:24.067Z,1.52
2022-11-17T23:23:53.992Z,0.93
2022-11-17T23:26:23.556Z,1.25
2022-11-17T23:28:51.749Z,1.15
2022-11-17T23:31:20.384Z,1.10
2022-11-17T23:33:50.066Z,1.40
2022-11-17T23:36:20.227Z,1.35
2022-11-17T23:38:49.543Z,0.70
2022-11-17T23:41:21.335Z,1.30
2022-11-17T23:43:51.631Z,0.80
2022-11-17T23:46:21.747Z,1.23
2022-11-17T23:48:51.750Z,0.90
2022-11-17T23:51:22.086Z,0.90
2022-11-17T23:53:51.150Z,1.02
2022-11-17T23:56:21.963Z,0.75
2022-11-17T23:58:52.325Z,0.98
